Airfield :
LOGIN :

Register | Disclaimer

   EN    FR    IT 

 










Legend :    VFR   Marginal VFR   IFR   Intensive IFR   Very Intensive IFR
Visi :
Ceiling :
>= 8 km
>= 3000ft
5 to 8 km
1000 to 3000 ft
1500m to 5 km
500 to 1000 ft
800 to 1500m
200 to 500 ft
< 800m
< 200 ft
Symbols :   Thunderstorms  Fog  Heavy snow  Heavy precipitations  Wind > 20 kt
SIGMETs :     Misc.  Thunderstorms  Icing  Turbulence  Mountain Waves  Volcanic Ashes






- Airport Elevation : 194 ft
- IATA code : LME


LFRM - Le Mans

CURRENT METAR :
  • 100400Z AUTO 00000KT 9000 NSC M01/M01 Q1029

EXPIRED METARs :
  • 100330Z AUTO 00000KT CAVOK M00/M00 Q1029
  • 100300Z AUTO 00000KT CAVOK M01/M01 Q1029
  • 100230Z AUTO 17002KT 8000 NSC M01/M01 Q1029
  • 100200Z AUTO VRB01KT 7000 NSC M01/M01 Q1029
  • 100130Z AUTO 00000KT 5000 BR NSC M00/M00 Q1029

TAF TAF LFRM
Valid from the 09 at 12:00 until the 10 at 12:00 UTC


091100Z 0912/1012 30012KT 9999 BKN030
TEMPO 0912/0916 29018G30KT 4000 SHRA BKN030TCU
BECMG 0922/0924 VRB03KT
PROB30
TEMPO 1002/1006 0600 FG VV///
BECMG 1009/1012 18010KT



MET'MAP, your aeronautical weather chart ! - Copyright ORBIFLY December 2007 - Disclaimer

ORBIFLY MET'MAP TEAM :

Programming & Development : Alexandra Zaïnal
Concept & original design : Baudouin d'Aumeries
Assistance for programming : Marc-Olivier Méhu
Technical & hardware support : Manuel Goepfert

Contact : metmap@orbifly.com




SOURCES & CREDITS :

   NOAA